AIRPORT_AIRPORT_METAR
METAR FOR DTTJ
ADDS - METARS form results

(0443 UTC 01 October 2020)
Data provider http://aviationweather.gov/metar/data/
 
METAR text: DTTJ 010430Z 24003KT CAVOK 24/19 Q1008 NOSIG
Conditions at: DTTJ (DJERBA MELLITA , TN) observed 0430 UTC 01 October 2020
Temperature: 24.0°C (75°F)
Dewpoint: 19.0°C (66°F) [RH = 74%]
Pressure (altimeter): 29.76 inches Hg (1008.0 mb)
Winds: from the WSW (240 degrees) at 3 MPH (3 knots; 1.5 m/s)
Visibility: 6 or more miles (10+ km)
Ceiling: ceiling and visibility are OK
Clouds: unknown
Weather: no significant weather observed at this time

METAR text: DTTJ 010400Z 19004KT CAVOK 23/20 Q1008 NOSIG
Conditions at: DTTJ (DJERBA MELLITA , TN) observed 0400 UTC 01 October 2020
Temperature: 23.0°C (73°F)
Dewpoint: 20.0°C (68°F) [RH = 83%]
Pressure (altimeter): 29.76 inches Hg (1008.0 mb)
Winds: from the S (190 degrees) at 5 MPH (4 knots; 2.1 m/s)
Visibility: 6 or more miles (10+ km)
Ceiling: ceiling and visibility are OK
Clouds: unknown
Weather: no significant weather observed at this time

Forecast for: DTTJ (DJERBA MELLITA , TN)
Text: TAF DTTJ 302300Z 0101/0124 16010KT CAVOK
Forecast period: 0100 to 0400 UTC 01 October 2020
Forecast type: FROM: standard forecast or significant change
Winds: from the SSE (160 degrees) at 12 MPH (10 knots; 5.1 m/s)
Visibility: 6 or more miles (10+ km)
Ceiling: unknown
Clouds: missing
Weather: NSW  (no significant weather)
Text: PROB40
Forecast period: 0100 to 0400 UTC 01 October 2020
Forecast type: TEMPORARY: The following changes expected for less than half the time period
Winds: variable direction winds at 6 MPH (5 knots; 2.6 m/s)
Visibility: missing
Ceiling: unknown
Clouds: missing
Weather: no significant weather forecast for this period
Text: TEMPO 0101/0104 VRB05KT
Forecast period: 0400 UTC 01 October 2020 to 0000 UTC 02 October 2020
Forecast type: BECOMING: Conditions expected to become as follows by 0600 UTC 01 October 2020
Winds: from the NNE (20 degrees) at 17 MPH (15 knots; 7.7 m/s)
Visibility: 6 or more miles (10+ km)
Ceiling: unknown
Clouds: missing
Weather: NSW  (no significant weather)

 AIRPORT_AIRPORT_MAP

 AIRPORT_RUNWAY_INFO
AIRPORT_RUNWAY 09 AIRPORT_RUNWAY_LENGTH 10171 ft AIRPORT_RUNWAY_WIDTH 148 ft
AIRPORT_RUNWAY_ELEVATION 9 ft AIRPORT_RUNWAY_THRESHOLD 0 ft AIRPORT_RUNWAY_HEADING 88
AIRPORT_RUNWAY 27 AIRPORT_RUNWAY_LENGTH 10171 ft AIRPORT_RUNWAY_WIDTH 148 ft
AIRPORT_RUNWAY_ELEVATION 18 ft AIRPORT_RUNWAY_THRESHOLD 0 ft AIRPORT_RUNWAY_HEADING 268

 AIRPORT_AIRPORT_FREQUENCIES
AIRPORT_AIRPORT_NAVAIDS_TYPE APP AIRPORT_AIRPORT_NAVAIDS_NAME DJERBA APP AIRPORT_AIRPORT_NAVAIDS_FREQ 120.3 MHZ
AIRPORT_AIRPORT_NAVAIDS_TYPE TWR AIRPORT_AIRPORT_NAVAIDS_NAME DJERBA TWR AIRPORT_AIRPORT_NAVAIDS_FREQ 118.15 MHZ

 AIRPORT_AIRPORT_NAVAIDS
AIRPORT_AIRPORT_NAVAIDS_TYPE VOR-DME AIRPORT_AIRPORT_NAVAIDS_NAME Djerba AIRPORT_AIRPORT_NAVAIDS_FREQ 112200 KHZ



Copyright © 2005-2020 - Virtuel Air Alsace - Tous droits réservés